createdAt,value
2024-01-01T00:00:22.983Z,1033.00
2024-01-01T00:01:23.028Z,1032.00
2024-01-01T00:02:23.005Z,1039.00
2024-01-01T00:03:23.563Z,1039.00
2024-01-01T00:04:23.006Z,1034.00
2024-01-01T00:05:23.080Z,1034.00
2024-01-01T00:06:23.002Z,1035.00
2024-01-01T00:07:23.009Z,1032.00
2024-01-01T00:08:23.007Z,1034.00
2024-01-01T00:09:22.998Z,1037.00
2024-01-01T00:10:23.014Z,1034.00
2024-01-01T00:11:23.018Z,1025.00
2024-01-01T00:12:23.033Z,1035.00
2024-01-01T00:13:23.031Z,1037.00
2024-01-01T00:14:23.021Z,1035.00
2024-01-01T00:15:23.006Z,1034.00
2024-01-01T00:16:23.011Z,1036.00
2024-01-01T00:17:23.117Z,1036.00
2024-01-01T00:18:23.107Z,1034.00
2024-01-01T00:19:23.058Z,1037.00
2024-01-01T00:20:23.042Z,1034.00
2024-01-01T00:21:23.042Z,1038.00
2024-01-01T00:22:23.026Z,1034.00
2024-01-01T00:23:23.049Z,1044.00
2024-01-01T00:24:23.043Z,1040.00
2024-01-01T00:25:23.038Z,1039.00
2024-01-01T00:26:23.061Z,1039.00
2024-01-01T00:27:23.039Z,1040.00
2024-01-01T00:28:23.085Z,1045.00
2024-01-01T00:29:28.280Z,1044.00
2024-01-01T00:30:24.082Z,1040.00
2024-01-01T00:31:23.056Z,1040.00
2024-01-01T00:32:23.075Z,1044.00
2024-01-01T00:33:23.112Z,1047.00
2024-01-01T00:34:23.059Z,1034.00
2024-01-01T00:35:23.074Z,1040.00
2024-01-01T00:36:23.086Z,1044.00
2024-01-01T00:37:23.059Z,1044.00
2024-01-01T00:38:23.085Z,1044.00
2024-01-01T00:39:23.067Z,1049.00
2024-01-01T00:40:23.108Z,1046.00
2024-01-01T00:41:23.068Z,1049.00
2024-01-01T00:42:23.095Z,1040.00
2024-01-01T00:43:23.078Z,1043.00
2024-01-01T00:44:23.086Z,1049.00
2024-01-01T00:45:25.519Z,1048.00
2024-01-01T00:46:23.106Z,1048.00
2024-01-01T00:47:23.208Z,1050.00
2024-01-01T00:48:23.286Z,1046.00
2024-01-01T00:49:23.094Z,1053.00
2024-01-01T00:50:23.102Z,1041.00
2024-01-01T00:51:23.083Z,1050.00
2024-01-01T00:52:23.097Z,1043.00
2024-01-01T00:53:23.105Z,1043.00
2024-01-01T00:54:23.092Z,1057.00
2024-01-01T00:55:24.319Z,1049.00
2024-01-01T00:56:23.142Z,1047.00
2024-01-01T00:57:23.100Z,1044.00
2024-01-01T00:58:23.106Z,1045.00
2024-01-01T00:59:25.976Z,1045.00
2024-01-01T01:00:23.121Z,1041.00
2024-01-01T01:01:23.103Z,1037.00
2024-01-01T01:02:23.152Z,1045.00
2024-01-01T01:03:23.143Z,1046.00
2024-01-01T01:04:23.164Z,1045.00
2024-01-01T01:05:23.168Z,1053.00
2024-01-01T01:06:25.241Z,1050.00
2024-01-01T01:07:23.124Z,1056.00
2024-01-01T01:08:23.150Z,1048.00
2024-01-01T01:09:23.138Z,1041.00
2024-01-01T01:10:23.123Z,1056.00
2024-01-01T01:11:23.123Z,1057.00
2024-01-01T01:12:23.125Z,1042.00
2024-01-01T01:13:23.133Z,1051.00
2024-01-01T01:14:23.133Z,1047.00
2024-01-01T01:15:23.125Z,1038.00
2024-01-01T01:16:23.136Z,1061.00
2024-01-01T01:17:23.152Z,1050.00
2024-01-01T01:18:23.220Z,1050.00
2024-01-01T01:19:23.150Z,1051.00
2024-01-01T01:20:23.176Z,1051.00
2024-01-01T01:21:23.157Z,1045.00
2024-01-01T01:22:23.142Z,1052.00
2024-01-01T01:23:23.151Z,1046.00
2024-01-01T01:24:23.187Z,1051.00
2024-01-01T01:25:23.147Z,1051.00
2024-01-01T01:26:23.161Z,1056.00
2024-01-01T01:27:23.171Z,1050.00
2024-01-01T01:28:23.167Z,1051.00
2024-01-01T01:29:23.174Z,1041.00
2024-01-01T01:30:23.193Z,1055.00
2024-01-01T01:31:23.169Z,1051.00
2024-01-01T01:32:23.186Z,1051.00
2024-01-01T01:33:23.263Z,1050.00
2024-01-01T01:34:23.179Z,1051.00
2024-01-01T01:35:23.178Z,1052.00
2024-01-01T01:36:23.206Z,1053.00
2024-01-01T01:37:23.193Z,1064.00
2024-01-01T01:38:23.213Z,1061.00
2024-01-01T01:39:23.187Z,1052.00
2024-01-01T01:40:23.205Z,1052.00
2024-01-01T01:41:23.187Z,1053.00
2024-01-01T01:42:23.190Z,1054.00
2024-01-01T01:43:23.203Z,1060.00
2024-01-01T01:44:23.202Z,1052.00
2024-01-01T01:45:23.195Z,1053.00
2024-01-01T01:46:23.202Z,1055.00
2024-01-01T01:47:23.249Z,1062.00
2024-01-01T01:48:23.248Z,1052.00
2024-01-01T01:49:23.232Z,1053.00
2024-01-01T01:50:23.198Z,1055.00
2024-01-01T01:51:23.203Z,1055.00
2024-01-01T01:52:23.227Z,1058.00
2024-01-01T01:53:23.219Z,1066.00
2024-01-01T01:54:23.237Z,1062.00
2024-01-01T01:55:23.234Z,1066.00
2024-01-01T01:56:23.232Z,1068.00
2024-01-01T01:57:23.212Z,1066.00
2024-01-01T01:58:23.238Z,1067.00
2024-01-01T01:59:23.274Z,1053.00
2024-01-01T02:00:23.239Z,1066.00
2024-01-01T02:01:23.233Z,1068.00
2024-01-01T02:02:23.249Z,1057.00
2024-01-01T02:03:23.280Z,1057.00
2024-01-01T02:04:23.250Z,1053.00
2024-01-01T02:05:23.297Z,1059.00
2024-01-01T02:06:23.252Z,1068.00
2024-01-01T02:07:23.237Z,1065.00
2024-01-01T02:08:23.315Z,1059.00
2024-01-01T02:09:23.584Z,1055.00
2024-01-01T02:10:23.255Z,1064.00
2024-01-01T02:11:23.383Z,1064.00
2024-01-01T02:12:23.268Z,1065.00
2024-01-01T02:13:23.251Z,1064.00
2024-01-01T02:14:24.147Z,1058.00
2024-01-01T02:15:23.249Z,1071.00
2024-01-01T02:16:23.264Z,1063.00
2024-01-01T02:17:23.260Z,1065.00
2024-01-01T02:18:23.343Z,1064.00
2024-01-01T02:19:23.277Z,1064.00
2024-01-01T02:20:23.312Z,1068.00
2024-01-01T02:21:23.269Z,1064.00
2024-01-01T02:22:23.267Z,1064.00
2024-01-01T02:23:23.373Z,1065.00
2024-01-01T02:24:23.322Z,1064.00
2024-01-01T02:25:23.261Z,1076.00
2024-01-01T02:26:23.294Z,1077.00
2024-01-01T02:27:23.273Z,1069.00
2024-01-01T02:28:23.276Z,1063.00
2024-01-01T02:29:23.319Z,1066.00
2024-01-01T02:30:23.436Z,1067.00
2024-01-01T02:31:23.511Z,1071.00
2024-01-01T02:32:23.491Z,1074.00
2024-01-01T02:33:23.609Z,1070.00
2024-01-01T02:34:23.632Z,1070.00
2024-01-01T02:35:23.550Z,1070.00
2024-01-01T02:36:23.557Z,1072.00
2024-01-01T02:37:23.565Z,1074.00
2024-01-01T02:38:23.642Z,1065.00
2024-01-01T02:41:45.845Z,1070.00
2024-01-01T02:42:23.589Z,1072.00
2024-01-01T02:43:23.589Z,1083.00
2024-01-01T02:44:24.460Z,1099.00
2024-01-01T02:45:23.627Z,1073.00
2024-01-01T02:46:31.461Z,1083.00
2024-01-01T02:47:23.611Z,1072.00
2024-01-01T02:48:23.640Z,1079.00
2024-01-01T02:49:23.611Z,1092.00
2024-01-01T02:50:23.616Z,1112.00
2024-01-01T02:51:23.637Z,1072.00
2024-01-01T02:52:23.608Z,1078.00
2024-01-01T02:53:23.614Z,1087.00
2024-01-01T02:54:23.615Z,1071.00
2024-01-01T02:55:23.623Z,1076.00
2024-01-01T02:56:23.660Z,1084.00
2024-01-01T02:57:23.624Z,1096.00
2024-01-01T02:58:23.623Z,1114.00
2024-01-01T02:59:23.637Z,1071.00
2024-01-01T03:00:23.651Z,1076.00
2024-01-01T03:01:23.633Z,1088.00
2024-01-01T03:02:23.651Z,1097.00
2024-01-01T03:03:23.650Z,1111.00
2024-01-01T03:04:23.647Z,1115.00
2024-01-01T03:05:23.831Z,1105.00
2024-01-01T03:06:23.691Z,1109.00
2024-01-01T03:07:23.654Z,1116.00
2024-01-01T03:08:23.706Z,1122.00
2024-01-01T03:09:23.788Z,1105.00
2024-01-01T03:10:23.806Z,1116.00
2024-01-01T03:11:23.863Z,1119.00
2024-01-01T03:12:23.923Z,1111.00
2024-01-01T03:13:23.997Z,1115.00
2024-01-01T03:14:24.070Z,1114.00
2024-01-01T03:15:24.124Z,1118.00
2024-01-01T03:16:24.184Z,1108.00
2024-01-01T03:17:24.238Z,1102.00
2024-01-01T03:18:24.284Z,1102.00
2024-01-01T03:19:24.255Z,1083.00
2024-01-01T03:20:24.244Z,1076.00
2024-01-01T03:21:24.276Z,1058.00
2024-01-01T03:22:24.259Z,1045.00
2024-01-01T03:23:24.243Z,1008.00
2024-01-01T03:24:24.266Z,998.00
2024-01-01T03:25:24.254Z,982.00
2024-01-01T03:26:24.270Z,964.00
2024-01-01T03:27:24.275Z,951.00
2024-01-01T03:28:24.270Z,930.00
2024-01-01T03:29:24.293Z,923.00
2024-01-01T03:30:24.301Z,903.00
2024-01-01T03:31:24.306Z,895.00
2024-01-01T03:32:24.296Z,895.00
2024-01-01T03:33:24.409Z,895.00
2024-01-01T03:34:24.281Z,888.00
2024-01-01T03:35:24.358Z,891.00
2024-01-01T03:36:24.295Z,895.00
2024-01-01T03:37:24.287Z,896.00
2024-01-01T03:38:24.355Z,905.00
2024-01-01T03:39:24.301Z,922.00
2024-01-01T03:40:24.293Z,942.00
2024-01-01T03:41:24.316Z,959.00
2024-01-01T03:42:24.305Z,962.00
2024-01-01T03:43:24.335Z,962.00
2024-01-01T03:44:24.315Z,963.00
2024-01-01T03:45:24.312Z,965.00
2024-01-01T03:46:24.318Z,972.00
2024-01-01T03:47:27.355Z,986.00
2024-01-01T03:48:24.416Z,964.00
2024-01-01T03:49:24.353Z,970.00
2024-01-01T03:50:24.397Z,964.00
2024-01-01T03:51:24.347Z,972.00
2024-01-01T03:52:24.330Z,979.00
2024-01-01T03:53:24.342Z,997.00
2024-01-01T03:54:24.350Z,1030.00
2024-01-01T03:55:24.341Z,1043.00
2024-01-01T03:56:24.340Z,1043.00
2024-01-01T03:57:24.328Z,1044.00
2024-01-01T03:58:24.330Z,1051.00
2024-01-01T03:59:24.355Z,1051.00
2024-01-01T04:00:24.372Z,1051.00
2024-01-01T04:01:24.367Z,1052.00
2024-01-01T04:02:24.369Z,1054.00
2024-01-01T04:03:24.441Z,1063.00
2024-01-01T04:04:24.854Z,1069.00
2024-01-01T04:05:24.402Z,1049.00
2024-01-01T04:06:24.394Z,1056.00
2024-01-01T04:07:24.353Z,1055.00
2024-01-01T04:08:24.407Z,1057.00
2024-01-01T04:09:24.832Z,1057.00
2024-01-01T04:10:24.355Z,1058.00
2024-01-01T04:11:24.353Z,1061.00
2024-01-01T04:12:24.361Z,1051.00
2024-01-01T04:13:24.374Z,1067.00
2024-01-01T04:14:24.446Z,1066.00
2024-01-01T04:15:24.382Z,1079.00
2024-01-01T04:16:24.386Z,1082.00
2024-01-01T04:17:24.413Z,1074.00
2024-01-01T04:18:24.432Z,1083.00
2024-01-01T04:19:24.389Z,1085.00
2024-01-01T04:20:24.409Z,1079.00
2024-01-01T04:21:24.378Z,1078.00
2024-01-01T04:22:26.551Z,1093.00
2024-01-01T04:23:24.423Z,1095.00
2024-01-01T04:24:36.523Z,600.00
2024-01-01T04:25:36.529Z,600.00
2024-01-01T04:26:36.513Z,600.00
2024-01-01T04:27:36.517Z,600.00
2024-01-01T04:28:36.580Z,600.00
2024-01-01T04:29:36.524Z,600.00
2024-01-01T04:30:36.552Z,603.00
2024-01-01T04:31:43.753Z,600.00
2024-01-01T04:32:43.770Z,600.00
2024-01-01T04:33:44.305Z,600.00
2024-01-01T04:34:43.750Z,600.00
2024-01-01T04:35:43.741Z,600.00
2024-01-01T04:36:43.746Z,602.00
2024-01-01T04:37:43.775Z,598.00
2024-01-01T04:38:43.771Z,595.00
2024-01-01T04:39:43.740Z,586.00
2024-01-01T04:40:43.756Z,585.00
2024-01-01T04:41:43.766Z,581.00
2024-01-01T04:42:43.756Z,577.00
2024-01-01T04:43:43.827Z,571.00
2024-01-01T04:44:43.759Z,565.00
2024-01-01T04:45:43.772Z,592.00
2024-01-01T04:46:43.772Z,601.00
2024-01-01T04:47:43.828Z,598.00
2024-01-01T04:48:43.864Z,592.00
2024-01-01T04:49:43.777Z,590.00
2024-01-01T04:50:43.780Z,582.00
2024-01-01T04:51:43.761Z,583.00
2024-01-01T04:52:43.778Z,600.00
2024-01-01T04:53:44.583Z,605.00
2024-01-01T04:54:43.781Z,604.00
2024-01-01T04:55:43.787Z,602.00
2024-01-01T04:56:43.791Z,596.00
2024-01-01T04:57:43.796Z,595.00
2024-01-01T04:58:43.804Z,590.00
2024-01-01T04:59:43.808Z,595.00
2024-01-01T05:00:43.837Z,587.00
2024-01-01T05:01:43.818Z,602.00
2024-01-01T05:02:43.775Z,603.00
2024-01-01T05:03:43.882Z,604.00
2024-01-01T05:04:43.838Z,599.00
2024-01-01T05:05:43.822Z,602.00
2024-01-01T05:06:43.787Z,594.00
2024-01-01T05:07:43.829Z,593.00
2024-01-01T05:08:43.800Z,592.00
2024-01-01T05:09:43.801Z,586.00
2024-01-01T05:10:43.836Z,583.00
2024-01-01T05:11:43.796Z,601.00
2024-01-01T05:12:43.812Z,601.00
2024-01-01T05:13:43.847Z,593.00
2024-01-01T05:14:43.824Z,597.00
2024-01-01T05:15:43.854Z,591.00
2024-01-01T05:16:43.853Z,583.00
2024-01-01T05:17:43.814Z,583.00
2024-01-01T05:18:43.941Z,602.00
2024-01-01T05:19:43.851Z,600.00
2024-01-01T05:20:43.845Z,602.00
2024-01-01T05:21:43.864Z,602.00
2024-01-01T05:22:43.841Z,602.00
2024-01-01T05:23:43.827Z,595.00
2024-01-01T05:24:43.836Z,590.00
2024-01-01T05:25:43.860Z,588.00
2024-01-01T05:26:43.823Z,584.00
2024-01-01T05:27:43.865Z,576.00
2024-01-01T05:28:43.837Z,578.00
2024-01-01T05:29:43.849Z,579.00
2024-01-01T05:30:43.878Z,579.00
2024-01-01T05:31:43.886Z,579.00
2024-01-01T05:32:43.877Z,578.00
2024-01-01T05:33:43.980Z,576.00
2024-01-01T05:34:43.861Z,574.00
2024-01-01T05:35:43.849Z,562.00
2024-01-01T05:36:43.847Z,559.00
2024-01-01T05:37:43.880Z,597.00
2024-01-01T05:38:43.870Z,601.00
2024-01-01T05:39:43.866Z,601.00
2024-01-01T05:40:43.899Z,600.00
2024-01-01T05:41:43.882Z,601.00
2024-01-01T05:42:43.876Z,596.00
2024-01-01T05:43:43.907Z,590.00
2024-01-01T05:44:43.894Z,594.00
2024-01-01T05:45:43.875Z,588.00
2024-01-01T05:46:43.894Z,586.00
2024-01-01T05:47:43.909Z,604.00
2024-01-01T05:48:44.337Z,606.00
2024-01-01T05:49:43.927Z,603.00
2024-01-01T05:50:44.017Z,601.00
2024-01-01T05:51:43.885Z,604.00
2024-01-01T05:52:43.906Z,604.00
2024-01-01T05:53:43.883Z,600.00
2024-01-01T05:54:43.900Z,600.00
2024-01-01T05:55:43.933Z,601.00
2024-01-01T05:56:43.910Z,601.00
2024-01-01T05:57:43.893Z,601.00
2024-01-01T05:58:43.903Z,600.00
2024-01-01T05:59:43.915Z,600.00
2024-01-01T06:00:43.921Z,603.00
2024-01-01T06:01:43.915Z,604.00
2024-01-01T06:02:43.917Z,604.00
2024-01-01T06:03:43.938Z,604.00
2024-01-01T06:04:44.022Z,603.00
2024-01-01T06:05:44.015Z,604.00
2024-01-01T06:06:43.914Z,604.00
2024-01-01T06:07:43.948Z,601.00
2024-01-01T06:08:43.925Z,603.00
2024-01-01T06:09:43.933Z,606.00
2024-01-01T06:10:43.992Z,601.00
2024-01-01T06:11:43.948Z,608.00
2024-01-01T06:12:43.945Z,606.00
2024-01-01T06:13:43.970Z,601.00
2024-01-01T06:14:43.940Z,600.00
2024-01-01T06:15:43.934Z,606.00
2024-01-01T06:16:44.022Z,606.00
2024-01-01T06:17:44.073Z,604.00
2024-01-01T06:18:44.118Z,604.00
2024-01-01T06:19:43.979Z,602.00
2024-01-01T06:20:43.943Z,599.00
2024-01-01T06:21:43.956Z,600.00
2024-01-01T06:22:43.961Z,604.00
2024-01-01T06:23:43.969Z,599.00
2024-01-01T06:24:43.962Z,603.00
2024-01-01T06:25:44.006Z,603.00
2024-01-01T06:26:43.958Z,607.00
2024-01-01T06:27:43.966Z,604.00
2024-01-01T06:28:44.005Z,605.00
2024-01-01T06:29:43.969Z,600.00
2024-01-01T06:30:43.987Z,604.00
2024-01-01T06:31:43.990Z,608.00
2024-01-01T06:32:43.994Z,604.00
2024-01-01T06:33:44.025Z,602.00
2024-01-01T06:34:44.018Z,611.00
2024-01-01T06:35:43.978Z,614.00
2024-01-01T06:36:43.999Z,611.00
2024-01-01T06:37:43.996Z,611.00
2024-01-01T06:38:43.989Z,611.00
2024-01-01T06:39:43.980Z,611.00
2024-01-01T06:40:44.016Z,611.00
2024-01-01T06:41:43.989Z,614.00
2024-01-01T06:42:43.992Z,616.00
2024-01-01T06:43:44.012Z,624.00
2024-01-01T06:44:44.001Z,624.00
2024-01-01T06:45:44.013Z,624.00
2024-01-01T06:46:44.000Z,624.00
2024-01-01T06:47:44.118Z,625.00
2024-01-01T06:48:44.121Z,624.00
2024-01-01T06:49:44.036Z,625.00
2024-01-01T06:50:44.018Z,627.00
2024-01-01T06:51:44.033Z,633.00
2024-01-01T06:52:44.073Z,636.00
2024-01-01T06:53:44.040Z,631.00
2024-01-01T06:54:44.059Z,639.00
2024-01-01T06:55:44.036Z,637.00
2024-01-01T06:56:44.054Z,635.00
2024-01-01T06:57:44.030Z,636.00
2024-01-01T06:58:44.200Z,636.00
2024-01-01T06:59:44.078Z,633.00
2024-01-01T07:00:44.034Z,633.00
2024-01-01T07:01:44.068Z,628.00
2024-01-01T07:02:44.107Z,635.00
2024-01-01T07:03:44.095Z,629.00
2024-01-01T07:04:44.135Z,626.00
2024-01-01T07:05:44.092Z,626.00
2024-01-01T07:06:46.276Z,626.00
2024-01-01T07:07:44.114Z,628.00
2024-01-01T07:08:44.061Z,631.00
2024-01-01T07:09:44.083Z,630.00
2024-01-01T07:10:44.141Z,626.00
2024-01-01T07:11:44.073Z,627.00
2024-01-01T07:12:44.076Z,626.00
2024-01-01T07:13:44.105Z,626.00
2024-01-01T07:14:44.123Z,626.00
2024-01-01T07:15:44.122Z,626.00
2024-01-01T07:16:44.152Z,626.00
2024-01-01T07:17:44.188Z,627.00
2024-01-01T07:18:44.268Z,629.00
2024-01-01T07:19:44.181Z,629.00
2024-01-01T07:20:44.127Z,630.00
2024-01-01T07:21:44.110Z,630.00
2024-01-01T07:22:44.181Z,631.00
2024-01-01T07:23:44.125Z,627.00
2024-01-01T07:24:44.157Z,629.00
2024-01-01T07:25:44.142Z,626.00
2024-01-01T07:26:44.115Z,628.00
2024-01-01T07:27:44.136Z,627.00
2024-01-01T07:28:44.165Z,633.00
2024-01-01T07:29:44.161Z,632.00
2024-01-01T07:30:44.170Z,634.00
2024-01-01T07:31:44.165Z,630.00
2024-01-01T07:32:44.162Z,635.00
2024-01-01T07:33:44.186Z,635.00
2024-01-01T07:34:44.168Z,634.00
2024-01-01T07:35:44.151Z,638.00
2024-01-01T07:36:44.139Z,636.00
2024-01-01T07:37:44.149Z,632.00
2024-01-01T07:38:44.181Z,632.00
2024-01-01T07:39:44.162Z,632.00
2024-01-01T07:40:44.174Z,628.00
2024-01-01T07:41:44.162Z,628.00
2024-01-01T07:42:44.170Z,629.00
2024-01-01T07:43:44.207Z,629.00
2024-01-01T07:44:44.180Z,628.00
2024-01-01T07:45:44.181Z,628.00
2024-01-01T07:46:44.204Z,630.00
2024-01-01T07:47:44.233Z,630.00
2024-01-01T07:48:44.264Z,628.00
2024-01-01T07:49:44.274Z,629.00
2024-01-01T07:50:44.181Z,629.00
2024-01-01T07:51:44.203Z,629.00
2024-01-01T07:52:44.215Z,631.00
2024-01-01T07:53:44.175Z,638.00
2024-01-01T07:54:44.181Z,636.00
2024-01-01T07:55:44.247Z,630.00
2024-01-01T07:56:44.186Z,628.00
2024-01-01T07:57:44.203Z,638.00
2024-01-01T07:58:44.211Z,638.00
2024-01-01T07:59:44.217Z,639.00
2024-01-01T08:00:44.210Z,633.00
2024-01-01T08:01:44.263Z,641.00
2024-01-01T08:02:44.196Z,643.00
2024-01-01T08:03:44.236Z,643.00
2024-01-01T08:04:44.281Z,644.00
2024-01-01T08:05:44.268Z,646.00
2024-01-01T08:06:44.227Z,648.00
2024-01-01T08:07:44.243Z,652.00
2024-01-01T08:08:44.247Z,658.00
2024-01-01T08:09:44.248Z,656.00
2024-01-01T08:10:44.231Z,656.00
2024-01-01T08:11:44.234Z,662.00
2024-01-01T08:12:44.233Z,662.00
2024-01-01T08:13:44.224Z,657.00
2024-01-01T08:14:44.219Z,664.00
2024-01-01T08:15:44.223Z,663.00
2024-01-01T08:16:44.236Z,663.00
2024-01-01T08:17:44.271Z,663.00
2024-01-01T08:18:44.296Z,662.00
2024-01-01T08:19:44.308Z,664.00
2024-01-01T08:20:44.278Z,676.00
2024-01-01T08:21:44.295Z,669.00
2024-01-01T08:22:44.252Z,666.00
2024-01-01T08:23:44.236Z,680.00
2024-01-01T08:24:44.224Z,682.00
2024-01-01T08:25:44.261Z,668.00
2024-01-01T08:26:44.244Z,689.00
2024-01-01T08:27:44.214Z,677.00
2024-01-01T08:28:44.238Z,691.00
2024-01-01T08:29:44.240Z,690.00
2024-01-01T08:30:44.296Z,699.00
2024-01-01T08:31:44.368Z,683.00
2024-01-01T08:32:44.290Z,684.00
2024-01-01T08:33:44.308Z,685.00
2024-01-01T08:34:44.266Z,694.00
2024-01-01T08:35:44.234Z,704.00
2024-01-01T08:36:44.239Z,710.00
2024-01-01T08:37:44.281Z,726.00
2024-01-01T08:38:44.252Z,727.00
2024-01-01T08:39:44.270Z,737.00
2024-01-01T08:40:44.318Z,739.00
2024-01-01T08:41:44.239Z,739.00
2024-01-01T08:42:44.264Z,740.00
2024-01-01T08:43:44.273Z,741.00
2024-01-01T08:44:44.249Z,745.00
2024-01-01T08:45:44.259Z,759.00
2024-01-01T08:46:44.294Z,763.00
2024-01-01T08:47:44.288Z,770.00
2024-01-01T08:48:44.346Z,768.00
2024-01-01T08:49:44.329Z,760.00
2024-01-01T08:50:44.260Z,760.00
2024-01-01T08:51:44.297Z,760.00
2024-01-01T08:52:44.350Z,762.00
2024-01-01T08:53:44.253Z,763.00
2024-01-01T08:54:44.270Z,758.00
2024-01-01T08:55:44.289Z,769.00
2024-01-01T08:56:44.294Z,769.00
2024-01-01T08:57:44.268Z,758.00
2024-01-01T08:58:44.326Z,771.00
2024-01-01T08:59:44.282Z,772.00
2024-01-01T09:00:44.345Z,787.00
2024-01-01T09:01:44.326Z,794.00
2024-01-01T09:02:44.293Z,786.00
2024-01-01T09:03:44.345Z,779.00
2024-01-01T09:04:44.413Z,777.00
2024-01-01T09:05:44.438Z,790.00
2024-01-01T09:06:44.909Z,817.00
2024-01-01T09:07:44.512Z,819.00
2024-01-01T09:08:44.625Z,825.00
2024-01-01T09:09:44.659Z,825.00
2024-01-01T09:10:44.609Z,829.00
2024-01-01T09:11:44.568Z,834.00
2024-01-01T09:12:44.574Z,844.00
2024-01-01T09:13:44.607Z,857.00
2024-01-01T09:14:44.576Z,827.00
2024-01-01T09:15:44.555Z,832.00
2024-01-01T09:16:44.609Z,851.00
2024-01-01T09:17:44.708Z,828.00
2024-01-01T09:18:44.752Z,840.00
2024-01-01T09:19:44.643Z,863.00
2024-01-01T09:20:44.692Z,829.00
2024-01-01T09:21:44.598Z,846.00
2024-01-01T09:22:44.617Z,877.00
2024-01-01T09:23:44.617Z,925.00
2024-01-01T09:24:44.608Z,970.00
2024-01-01T09:25:44.638Z,986.00
2024-01-01T09:26:44.620Z,979.00
2024-01-01T09:27:44.624Z,989.00
2024-01-01T09:28:44.625Z,991.00
2024-01-01T09:29:44.637Z,1006.00
2024-01-01T09:30:44.601Z,1011.00
2024-01-01T09:31:44.618Z,1027.00
2024-01-01T09:32:44.650Z,1027.00
2024-01-01T09:33:44.724Z,1030.00
2024-01-01T09:34:44.636Z,1028.00
2024-01-01T09:35:44.626Z,1028.00
2024-01-01T09:36:53.441Z,1034.00
2024-01-01T09:37:45.659Z,1028.00
2024-01-01T09:38:44.629Z,1036.00
2024-01-01T09:39:44.622Z,1050.00
2024-01-01T09:40:44.688Z,1071.00
2024-01-01T09:41:44.633Z,1102.00
2024-01-01T09:42:44.632Z,1118.00
2024-01-01T09:43:44.679Z,1121.00
2024-01-01T09:44:44.673Z,1130.00
2024-01-01T09:45:44.646Z,1129.00
2024-01-01T09:46:44.666Z,1132.00
2024-01-01T09:47:44.684Z,1136.00
2024-01-01T09:48:44.682Z,1131.00
2024-01-01T09:49:44.675Z,1146.00
2024-01-01T09:50:44.631Z,1147.00
2024-01-01T09:51:44.721Z,1152.00
2024-01-01T09:52:44.666Z,1165.00
2024-01-01T09:53:44.649Z,1154.00
2024-01-01T09:54:44.648Z,1153.00
2024-01-01T09:55:44.699Z,1164.00
2024-01-01T09:56:44.661Z,1169.00
2024-01-01T09:57:44.634Z,1172.00
2024-01-01T09:58:44.674Z,1168.00
2024-01-01T09:59:44.639Z,1168.00
2024-01-01T10:00:44.694Z,1168.00
2024-01-01T10:01:44.710Z,1170.00
2024-01-01T10:02:44.679Z,1175.00
2024-01-01T10:03:44.675Z,1181.00
2024-01-01T10:04:44.672Z,1194.00
2024-01-01T10:05:44.723Z,1198.00
2024-01-01T10:06:44.644Z,1200.00
2024-01-01T10:07:44.697Z,1197.00
2024-01-01T10:08:44.658Z,1196.00
2024-01-01T10:09:44.688Z,1205.00
2024-01-01T10:10:44.793Z,1214.00
2024-01-01T10:11:44.756Z,1206.00
2024-01-01T10:12:44.847Z,1197.00
2024-01-01T10:13:44.920Z,1197.00
2024-01-01T10:14:45.027Z,1199.00
2024-01-01T10:15:44.818Z,1204.00
2024-01-01T10:16:44.894Z,1215.00
2024-01-01T10:18:44.869Z,1225.00
2024-01-01T10:19:44.874Z,1221.00
2024-01-01T10:20:45.020Z,1229.00
2024-01-01T10:21:44.845Z,1225.00
2024-01-01T10:22:44.918Z,1223.00
2024-01-01T10:23:45.016Z,1233.00
2024-01-01T10:24:45.145Z,1232.00
2024-01-01T10:25:45.117Z,1235.00
2024-01-01T10:26:45.152Z,1233.00
2024-01-01T10:27:45.219Z,1241.00
2024-01-01T10:28:45.239Z,1241.00
2024-01-01T10:29:45.204Z,1235.00
2024-01-01T10:30:45.264Z,1241.00
2024-01-01T10:31:47.161Z,1240.00
2024-01-01T10:32:45.335Z,1241.00
2024-01-01T10:33:45.359Z,1242.00
2024-01-01T10:34:45.326Z,1243.00
2024-01-01T10:35:45.213Z,1246.00
2024-01-01T10:36:45.312Z,1252.00
2024-01-01T10:37:45.244Z,1242.00
2024-01-01T10:38:45.270Z,1243.00
2024-01-01T10:39:45.258Z,1245.00
2024-01-01T10:40:45.272Z,1250.00
2024-01-01T10:41:45.258Z,1253.00
2024-01-01T10:42:45.254Z,1242.00
2024-01-01T10:43:45.276Z,1243.00
2024-01-01T10:44:45.239Z,1246.00
2024-01-01T10:45:45.239Z,1253.00
2024-01-01T10:46:45.287Z,1255.00
2024-01-01T10:47:45.314Z,1250.00
2024-01-01T10:48:45.580Z,1248.00
2024-01-01T10:49:45.286Z,1251.00
2024-01-01T10:50:45.258Z,1253.00
2024-01-01T10:51:45.270Z,1253.00
2024-01-01T10:52:45.273Z,1253.00
2024-01-01T10:53:45.259Z,1255.00
2024-01-01T10:54:45.293Z,1250.00
2024-01-01T10:55:45.319Z,1247.00
2024-01-01T10:56:45.314Z,1268.00
2024-01-01T10:57:45.330Z,1253.00
2024-01-01T10:58:45.305Z,1253.00
2024-01-01T10:59:45.270Z,1248.00
2024-01-01T11:00:45.322Z,1232.00
2024-01-01T11:01:45.317Z,1249.00
2024-01-01T11:02:45.281Z,1257.00
2024-01-01T11:03:45.354Z,1252.00
2024-01-01T11:04:45.309Z,1246.00
2024-01-01T11:05:45.364Z,1250.00
2024-01-01T11:06:45.308Z,1251.00
2024-01-01T11:07:45.293Z,1259.00
2024-01-01T11:08:45.272Z,1232.00
2024-01-01T11:09:45.321Z,1251.00
2024-01-01T11:10:46.300Z,1273.00
2024-01-01T11:11:45.297Z,1271.00
2024-01-01T11:12:45.299Z,1246.00
2024-01-01T11:13:45.356Z,1236.00
2024-01-01T11:14:45.411Z,1260.00
2024-01-01T11:15:45.426Z,1261.00
2024-01-01T11:16:59.938Z,1260.00
2024-01-01T11:17:46.520Z,1248.00
2024-01-01T11:18:47.215Z,1251.00
2024-01-01T11:19:45.830Z,1242.00
2024-01-01T11:20:45.495Z,1265.00
2024-01-01T11:21:45.419Z,1242.00
2024-01-01T11:22:45.416Z,1242.00
2024-01-01T11:23:45.429Z,1241.00
2024-01-01T11:24:45.620Z,1256.00
2024-01-01T11:25:45.472Z,1252.00
2024-01-01T11:26:45.422Z,1255.00
2024-01-01T11:27:45.424Z,1255.00
2024-01-01T11:28:45.468Z,1256.00
2024-01-01T11:29:46.025Z,1255.00
2024-01-01T11:30:45.553Z,1255.00
2024-01-01T11:31:45.532Z,1256.00
2024-01-01T11:32:45.571Z,1255.00
2024-01-01T11:33:45.593Z,1258.00
2024-01-01T11:34:50.732Z,1262.00
2024-01-01T11:35:46.595Z,1255.00
2024-01-01T11:36:45.552Z,1257.00
2024-01-01T11:37:45.656Z,1260.00
2024-01-01T11:38:45.589Z,1268.00
2024-01-01T11:39:45.568Z,1255.00
2024-01-01T11:40:45.568Z,1257.00
2024-01-01T11:41:45.558Z,1256.00
2024-01-01T11:42:45.580Z,1258.00
2024-01-01T11:43:45.626Z,1263.00
2024-01-01T11:44:45.601Z,1273.00
2024-01-01T11:45:55.977Z,1267.00
2024-01-01T11:46:46.595Z,1255.00
2024-01-01T11:47:45.672Z,1260.00
2024-01-01T11:48:45.641Z,1264.00
2024-01-01T11:49:45.618Z,1273.00
2024-01-01T11:50:45.585Z,1271.00
2024-01-01T11:51:45.585Z,1282.00
2024-01-01T11:52:45.658Z,1282.00
2024-01-01T11:53:45.602Z,1282.00
2024-01-01T11:54:45.601Z,1274.00
2024-01-01T11:55:45.665Z,1281.00
2024-01-01T11:56:45.583Z,1279.00
2024-01-01T11:57:45.593Z,1280.00
2024-01-01T11:58:45.614Z,1273.00
2024-01-01T11:59:45.608Z,1271.00
2024-01-01T12:00:45.619Z,1264.00
2024-01-01T12:01:45.651Z,1270.00
2024-01-01T12:02:45.616Z,1279.00
2024-01-01T12:03:45.596Z,1279.00
2024-01-01T12:04:52.681Z,1273.00
2024-01-01T12:05:45.682Z,1273.00
2024-01-01T12:06:45.658Z,1274.00
2024-01-01T12:07:45.618Z,1276.00
2024-01-01T12:08:45.604Z,1281.00
2024-01-01T12:09:45.773Z,1286.00
2024-01-01T12:10:45.664Z,1287.00
2024-01-01T12:11:45.615Z,1295.00
2024-01-01T12:12:45.633Z,1286.00
2024-01-01T12:13:45.642Z,1279.00
2024-01-01T12:14:46.122Z,1278.00
2024-01-01T12:15:45.645Z,1271.00
2024-01-01T12:16:45.620Z,1271.00
2024-01-01T12:17:45.679Z,1271.00
2024-01-01T12:18:45.730Z,1269.00